createdAt,value
2023-01-28T00:00:10.563Z,2.68
2023-01-28T00:01:10.837Z,2.68
2023-01-28T00:02:11.096Z,2.69
2023-01-28T00:03:11.309Z,2.65
2023-01-28T00:04:11.559Z,2.62
2023-01-28T00:05:12.413Z,2.62
2023-01-28T00:06:12.069Z,2.72
2023-01-28T00:07:12.296Z,2.62
2023-01-28T00:08:12.551Z,2.67
2023-01-28T00:09:12.799Z,2.71
2023-01-28T00:10:13.064Z,2.68
2023-01-28T00:11:13.384Z,2.60
2023-01-28T00:12:13.549Z,2.65
2023-01-28T00:13:13.817Z,2.65
2023-01-28T00:14:14.077Z,2.65
2023-01-28T00:15:14.738Z,2.72
2023-01-28T00:16:14.676Z,2.74
2023-01-28T00:17:14.882Z,2.69
2023-01-28T00:18:15.112Z,2.67
2023-01-28T00:19:15.370Z,2.71
2023-01-28T00:20:15.635Z,2.71
2023-01-28T00:21:15.920Z,2.65
2023-01-28T00:22:16.212Z,2.67
2023-01-28T00:23:16.440Z,2.69
2023-01-28T00:24:16.757Z,2.69
2023-01-28T00:25:17.317Z,2.71
2023-01-28T00:26:17.250Z,2.67
2023-01-28T00:27:17.555Z,2.74
2023-01-28T00:28:17.803Z,2.72
2023-01-28T00:29:18.066Z,2.65
2023-01-28T00:30:18.343Z,2.69
2023-01-28T00:31:18.621Z,2.74
2023-01-28T00:32:18.941Z,2.71
2023-01-28T00:33:19.150Z,2.67
2023-01-28T00:34:19.419Z,2.62
2023-01-28T00:35:19.706Z,2.72
2023-01-28T00:36:20.009Z,2.60
2023-01-28T00:37:20.303Z,2.61
2023-01-28T00:38:20.561Z,2.71
2023-01-28T00:39:20.830Z,2.68
2023-01-28T00:40:21.136Z,2.65
2023-01-28T00:41:21.397Z,2.64
2023-01-28T00:42:21.711Z,2.69
2023-01-28T00:43:21.957Z,2.62
2023-01-28T00:44:22.233Z,2.74
2023-01-28T00:45:22.504Z,2.67
2023-01-28T00:46:22.965Z,2.65
2023-01-28T00:47:23.057Z,2.69
2023-01-28T00:48:23.301Z,2.64
2023-01-28T00:49:23.624Z,2.74
2023-01-28T00:50:23.849Z,2.67
2023-01-28T00:51:24.118Z,2.69
2023-01-28T00:52:24.403Z,2.69
2023-01-28T00:53:24.646Z,2.68
2023-01-28T00:54:24.954Z,2.67
2023-01-28T00:55:25.194Z,2.67
2023-01-28T00:56:25.497Z,2.62
2023-01-28T00:57:25.745Z,2.67
2023-01-28T00:58:26.028Z,2.64
2023-01-28T00:59:26.320Z,2.60
2023-01-28T01:00:26.624Z,2.56
2023-01-28T01:01:26.919Z,2.61
2023-01-28T01:02:27.273Z,2.53
2023-01-28T01:03:27.426Z,2.53
2023-01-28T01:04:27.701Z,2.60
2023-01-28T01:05:27.995Z,2.60
2023-01-28T01:06:28.388Z,2.50
2023-01-28T01:07:28.529Z,2.51
2023-01-28T01:08:28.818Z,2.53
2023-01-28T01:09:29.097Z,2.47
2023-01-28T01:10:29.379Z,2.47
2023-01-28T01:11:29.776Z,2.50
2023-01-28T01:12:30.016Z,2.49
2023-01-28T01:13:30.235Z,2.49
2023-01-28T01:14:30.513Z,2.49
2023-01-28T01:15:30.868Z,2.50
2023-01-28T01:16:31.093Z,2.42
2023-01-28T01:17:31.427Z,2.46
2023-01-28T01:18:31.658Z,2.43
2023-01-28T01:19:31.936Z,2.38
2023-01-28T01:20:32.229Z,2.42
2023-01-28T01:21:32.540Z,2.36
2023-01-28T01:22:32.871Z,2.33
2023-01-28T01:23:33.072Z,2.36
2023-01-28T01:24:33.348Z,2.20
2023-01-28T01:25:33.648Z,2.22
2023-01-28T01:26:33.930Z,2.26
2023-01-28T01:27:34.234Z,2.15
2023-01-28T01:28:34.505Z,2.14
2023-01-28T01:29:34.756Z,2.20
2023-01-28T01:30:35.072Z,2.13
2023-01-28T01:31:35.446Z,2.00
2023-01-28T01:32:35.654Z,2.06
2023-01-28T01:33:35.974Z,2.08
2023-01-28T01:34:36.256Z,1.94
2023-01-28T01:35:36.547Z,1.99
2023-01-28T01:36:36.835Z,1.95
2023-01-28T01:37:37.124Z,1.87
2023-01-28T01:38:37.450Z,1.87
2023-01-28T01:39:37.754Z,1.81
2023-01-28T01:40:38.020Z,1.85
2023-01-28T01:41:38.307Z,1.73
2023-01-28T01:42:38.594Z,1.76
2023-01-28T01:43:38.867Z,1.70
2023-01-28T01:44:39.196Z,1.74
2023-01-28T01:45:39.473Z,1.71
2023-01-28T01:46:39.814Z,1.68
2023-01-28T01:47:40.094Z,1.73
2023-01-28T01:48:40.383Z,1.68
2023-01-28T01:49:40.711Z,1.68
2023-01-28T01:50:40.973Z,1.66
2023-01-28T01:51:41.267Z,1.60
2023-01-28T01:52:41.555Z,1.63
2023-01-28T01:53:41.838Z,1.62
2023-01-28T01:54:42.160Z,1.63
2023-01-28T01:55:42.417Z,1.66
2023-01-28T01:56:42.696Z,1.56
2023-01-28T01:57:42.983Z,1.58
2023-01-28T01:58:43.297Z,1.66
2023-01-28T01:59:43.715Z,1.58
2023-01-28T02:00:43.870Z,1.66
2023-01-28T02:01:44.142Z,1.59
2023-01-28T02:02:44.462Z,1.59
2023-01-28T02:03:44.773Z,1.63
2023-01-28T02:04:45.046Z,1.63
2023-01-28T02:05:45.334Z,1.53
2023-01-28T02:06:45.633Z,1.62
2023-01-28T02:07:45.948Z,1.58
2023-01-28T02:08:46.251Z,1.49
2023-01-28T02:09:46.593Z,1.52
2023-01-28T02:10:46.862Z,1.50
2023-01-28T02:11:47.178Z,1.58
2023-01-28T02:12:47.594Z,1.55
2023-01-28T02:13:47.797Z,1.63
2023-01-28T02:14:48.105Z,1.60
2023-01-28T02:15:48.425Z,1.58
2023-01-28T02:16:48.827Z,1.63
2023-01-28T02:17:49.103Z,1.58
2023-01-28T02:18:49.330Z,1.68
2023-01-28T02:19:49.613Z,1.68
2023-01-28T02:20:49.938Z,1.71
2023-01-28T02:21:50.167Z,1.76
2023-01-28T02:22:50.446Z,1.71
2023-01-28T02:23:50.971Z,1.74
2023-01-28T02:24:51.022Z,1.76
2023-01-28T02:25:51.426Z,1.63
2023-01-28T02:26:51.613Z,1.76
2023-01-28T02:27:51.918Z,1.74
2023-01-28T02:28:52.203Z,1.85
2023-01-28T02:29:52.494Z,1.78
2023-01-28T02:30:52.958Z,1.80
2023-01-28T02:31:53.256Z,1.77
2023-01-28T02:32:53.410Z,1.85
2023-01-28T02:33:53.680Z,1.85
2023-01-28T02:34:53.960Z,1.88
2023-01-28T02:35:54.281Z,1.85
2023-01-28T02:36:54.628Z,1.81
2023-01-28T02:37:54.828Z,1.85
2023-01-28T02:38:55.113Z,1.85
2023-01-28T02:39:55.395Z,1.95
2023-01-28T02:40:55.666Z,1.85
2023-01-28T02:41:56.234Z,1.91
2023-01-28T02:42:56.253Z,1.92
2023-01-28T02:43:56.524Z,1.92
2023-01-28T02:44:56.789Z,1.89
2023-01-28T02:45:57.171Z,1.92
2023-01-28T02:46:57.401Z,1.88
2023-01-28T02:47:57.699Z,1.91
2023-01-28T02:48:57.925Z,1.88
2023-01-28T02:49:58.224Z,1.84
2023-01-28T02:50:58.500Z,1.81
2023-01-28T02:51:58.776Z,1.78
2023-01-28T02:52:59.091Z,1.84
2023-01-28T02:53:59.344Z,1.88
2023-01-28T02:54:59.634Z,1.85
2023-01-28T02:55:59.931Z,1.87
2023-01-28T02:57:00.193Z,1.87
2023-01-28T02:58:00.517Z,1.87
2023-01-28T02:59:00.748Z,1.87
2023-01-28T03:00:01.028Z,1.88
2023-01-28T03:01:01.319Z,1.80
2023-01-28T03:02:01.608Z,1.81
2023-01-28T03:03:01.961Z,1.87
2023-01-28T03:04:02.177Z,1.84
2023-01-28T03:05:02.456Z,1.85
2023-01-28T03:06:02.746Z,1.84
2023-01-28T03:07:03.028Z,1.87
2023-01-28T03:08:03.350Z,1.84
2023-01-28T03:09:03.633Z,1.81
2023-01-28T03:10:03.873Z,1.84
2023-01-28T03:11:04.151Z,1.81
2023-01-28T03:12:04.436Z,1.88
2023-01-28T03:13:04.810Z,1.92
2023-01-28T03:14:05.017Z,1.85
2023-01-28T03:15:05.321Z,1.89
2023-01-28T03:16:05.671Z,1.89
2023-01-28T03:17:05.898Z,1.85
2023-01-28T03:18:06.245Z,1.87
2023-01-28T03:19:06.515Z,1.88
2023-01-28T03:20:06.844Z,1.91
2023-01-28T03:21:07.093Z,1.92
2023-01-28T03:22:07.393Z,1.87
2023-01-28T03:23:08.150Z,1.89
2023-01-28T03:24:08.001Z,1.84
2023-01-28T03:25:08.371Z,1.92
2023-01-28T03:26:08.565Z,1.88
2023-01-28T03:27:08.848Z,1.91
2023-01-28T03:28:09.165Z,1.89
2023-01-28T03:29:09.469Z,1.84
2023-01-28T03:30:09.949Z,1.80
2023-01-28T03:31:10.114Z,1.87
2023-01-28T03:32:10.491Z,1.85
2023-01-28T03:33:10.726Z,1.77
2023-01-28T03:34:20.125Z,1.85
2023-01-28T03:35:11.410Z,1.71
2023-01-28T03:36:11.558Z,1.87
2023-01-28T03:37:11.871Z,1.84
2023-01-28T03:38:12.174Z,1.85
2023-01-28T03:39:12.471Z,1.81
2023-01-28T03:40:12.891Z,1.78
2023-01-28T03:41:13.087Z,1.81
2023-01-28T03:42:13.395Z,1.74
2023-01-28T03:43:13.683Z,1.78
2023-01-28T03:44:13.988Z,1.73
2023-01-28T03:45:14.719Z,1.74
2023-01-28T03:46:14.664Z,1.71
2023-01-28T03:47:14.907Z,1.68
2023-01-28T03:48:15.257Z,1.66
2023-01-28T03:49:15.503Z,1.63
2023-01-28T03:50:15.830Z,1.62
2023-01-28T03:51:16.089Z,1.48
2023-01-28T03:52:16.379Z,1.41
2023-01-28T03:53:17.162Z,1.44
2023-01-28T03:54:16.931Z,1.38
2023-01-28T03:55:17.442Z,1.40
2023-01-28T03:56:17.498Z,1.32
2023-01-28T03:57:17.768Z,1.34
2023-01-28T03:58:18.076Z,1.26
2023-01-28T03:59:18.340Z,1.14
2023-01-28T04:00:18.597Z,1.12
2023-01-28T04:01:18.914Z,1.13
2023-01-28T04:02:19.186Z,1.10
2023-01-28T04:03:19.531Z,1.06
2023-01-28T04:04:19.807Z,1.08
2023-01-28T04:05:20.070Z,1.14
2023-01-28T04:06:20.343Z,1.16
2023-01-28T04:07:20.637Z,1.06
2023-01-28T04:08:20.945Z,1.12
2023-01-28T04:09:21.293Z,1.08
2023-01-28T04:10:21.531Z,1.06
2023-01-28T04:11:21.843Z,1.02
2023-01-28T04:12:22.149Z,1.01
2023-01-28T04:13:22.456Z,1.01
2023-01-28T04:14:22.818Z,0.92
2023-01-28T04:15:23.081Z,0.96
2023-01-28T04:16:23.471Z,0.92
2023-01-28T04:17:23.668Z,0.94
2023-01-28T04:18:24.002Z,0.92
2023-01-28T04:19:24.302Z,0.83
2023-01-28T04:20:24.616Z,0.86
2023-01-28T04:21:24.879Z,0.81
2023-01-28T04:22:25.177Z,0.81
2023-01-28T04:23:25.474Z,0.78
2023-01-28T04:24:25.876Z,0.76
2023-01-28T04:25:26.094Z,0.74
2023-01-28T04:26:26.471Z,0.73
2023-01-28T04:27:26.643Z,0.65
2023-01-28T04:28:26.937Z,0.66
2023-01-28T04:29:27.253Z,0.59
2023-01-28T04:30:27.633Z,0.60
2023-01-28T04:31:27.850Z,0.58
2023-01-28T04:32:28.089Z,0.52
2023-01-28T04:33:28.395Z,0.50
2023-01-28T04:34:28.701Z,0.49
2023-01-28T04:35:28.950Z,0.43
2023-01-28T04:36:29.305Z,0.46
2023-01-28T04:37:29.584Z,0.41
2023-01-28T04:38:29.858Z,0.40
2023-01-28T04:39:30.170Z,0.44
2023-01-28T04:40:30.441Z,0.44
2023-01-28T04:41:30.752Z,0.43
2023-01-28T04:42:31.057Z,0.40
2023-01-28T04:43:31.361Z,0.43
2023-01-28T04:44:31.764Z,0.44
2023-01-28T04:45:31.960Z,0.34
2023-01-28T04:46:32.350Z,0.34
2023-01-28T04:47:32.548Z,0.37
2023-01-28T04:48:32.865Z,0.39
2023-01-28T04:49:33.233Z,0.29
2023-01-28T04:50:33.421Z,0.25
2023-01-28T04:51:33.717Z,0.22
2023-01-28T04:52:33.991Z,0.22
2023-01-28T04:53:34.289Z,0.23
2023-01-28T04:54:34.603Z,0.15
2023-01-28T04:55:34.863Z,0.12
2023-01-28T04:56:35.116Z,0.11
2023-01-28T04:57:35.416Z,0.19
2023-01-28T04:58:35.745Z,0.18
2023-01-28T04:59:36.034Z,0.10
2023-01-28T05:00:36.307Z,0.16
2023-01-28T05:01:36.629Z,0.15
2023-01-28T05:02:36.919Z,0.11
2023-01-28T05:03:37.228Z,0.21
2023-01-28T05:04:37.579Z,0.15
2023-01-28T05:05:37.948Z,0.07
2023-01-28T05:06:38.111Z,0.22
2023-01-28T05:07:38.407Z,0.10
2023-01-28T05:08:38.700Z,0.16
2023-01-28T05:09:39.005Z,0.19
2023-01-28T05:10:39.354Z,0.12
2023-01-28T05:11:39.614Z,0.15
2023-01-28T05:12:39.928Z,0.11
2023-01-28T05:13:40.241Z,0.08
2023-01-28T05:14:40.517Z,0.11
2023-01-28T05:15:40.861Z,0.15
2023-01-28T05:16:41.198Z,0.03
2023-01-28T05:17:41.507Z,0.03
2023-01-28T05:18:44.629Z,0.03
2023-01-28T05:19:42.031Z,0.11
2023-01-28T05:20:42.337Z,0.04
2023-01-28T05:21:42.664Z,0.00
2023-01-28T05:22:42.974Z,0.08
2023-01-28T05:23:43.242Z,0.05
2023-01-28T05:24:43.539Z,0.04
2023-01-28T05:25:43.845Z,-0.03
2023-01-28T05:26:44.152Z,0.00
2023-01-28T05:27:44.428Z,-0.02
2023-01-28T05:28:44.770Z,-0.07
2023-01-28T05:29:45.060Z,-0.08
2023-01-28T05:30:45.392Z,-0.13
2023-01-28T05:31:45.640Z,-0.14
2023-01-28T05:32:45.990Z,-0.20
2023-01-28T05:33:46.250Z,-0.15
2023-01-28T05:34:46.551Z,-0.13
2023-01-28T05:35:46.815Z,-0.21
2023-01-28T05:36:47.119Z,-0.20
2023-01-28T05:37:47.500Z,-0.18
2023-01-28T05:38:47.759Z,-0.11
2023-01-28T05:39:48.017Z,-0.17
2023-01-28T05:40:48.309Z,-0.15
2023-01-28T05:41:48.615Z,-0.15
2023-01-28T05:42:48.923Z,-0.18
2023-01-28T05:43:49.257Z,-0.21
2023-01-28T05:44:49.552Z,-0.26
2023-01-28T05:45:49.897Z,-0.18
2023-01-28T05:46:50.201Z,-0.23
2023-01-28T05:47:50.530Z,-0.20
2023-01-28T05:48:50.821Z,-0.20
2023-01-28T05:49:51.121Z,-0.28
2023-01-28T05:50:51.441Z,-0.25
2023-01-28T05:51:51.774Z,-0.34
2023-01-28T05:52:52.209Z,-0.23
2023-01-28T05:53:52.403Z,-0.26
2023-01-28T05:54:52.736Z,-0.26
2023-01-28T05:55:53.052Z,-0.32
2023-01-28T05:56:53.374Z,-0.32
2023-01-28T05:57:53.741Z,-0.29
2023-01-28T05:58:54.025Z,-0.39
2023-01-28T05:59:54.374Z,-0.38
2023-01-28T06:00:54.707Z,-0.35
2023-01-28T06:01:54.992Z,-0.38
2023-01-28T06:02:55.308Z,-0.38
2023-01-28T06:03:55.670Z,-0.43
2023-01-28T06:04:56.020Z,-0.46
2023-01-28T06:05:56.272Z,-0.44
2023-01-28T06:06:56.586Z,-0.49
2023-01-28T06:07:56.917Z,-0.47
2023-01-28T06:08:57.265Z,-0.59
2023-01-28T06:09:57.586Z,-0.50
2023-01-28T06:10:57.868Z,-0.56
2023-01-28T06:11:58.172Z,-0.59
2023-01-28T06:12:58.452Z,-0.59
2023-01-28T06:13:58.716Z,-0.56
2023-01-28T06:14:59.035Z,-0.59
2023-01-28T06:15:59.329Z,-0.64
2023-01-28T06:16:59.585Z,-0.62
2023-01-28T06:17:59.840Z,-0.68
2023-01-28T06:19:00.128Z,-0.64
2023-01-28T06:20:00.375Z,-0.67
2023-01-28T06:21:00.654Z,-0.61
2023-01-28T06:22:00.993Z,-0.72
2023-01-28T06:23:01.180Z,-0.74
2023-01-28T06:24:01.525Z,-0.59
2023-01-28T06:25:01.746Z,-0.65
2023-01-28T06:26:02.019Z,-0.71
2023-01-28T06:27:02.297Z,-0.71
2023-01-28T06:28:02.525Z,-0.72
2023-01-28T06:29:02.795Z,-0.61
2023-01-28T06:30:03.084Z,-0.74
2023-01-28T06:31:03.459Z,-0.72
2023-01-28T06:32:03.750Z,-0.72
2023-01-28T06:33:03.891Z,-0.72
2023-01-28T06:34:04.168Z,-0.70
2023-01-28T06:35:04.414Z,-0.74
2023-01-28T06:36:04.670Z,-0.78
2023-01-28T06:37:04.973Z,-0.75
2023-01-28T06:38:05.266Z,-0.71
2023-01-28T06:39:05.486Z,-0.77
2023-01-28T06:40:05.752Z,-0.80
2023-01-28T06:41:06.073Z,-0.74
2023-01-28T06:42:06.347Z,-0.68
2023-01-28T06:43:06.603Z,-0.77
2023-01-28T06:44:06.863Z,-0.72
2023-01-28T06:45:07.115Z,-0.71
2023-01-28T06:46:07.424Z,-0.71
2023-01-28T06:47:07.655Z,-0.71
2023-01-28T06:48:08.884Z,-0.68
2023-01-28T06:49:08.253Z,-0.70
2023-01-28T06:50:08.455Z,-0.65
2023-01-28T06:51:08.721Z,-0.67
2023-01-28T06:52:08.986Z,-0.68
2023-01-28T06:53:09.287Z,-0.71
2023-01-28T06:54:09.531Z,-0.71
2023-01-28T06:55:09.803Z,-0.67
2023-01-28T06:56:10.110Z,-0.74
2023-01-28T06:57:10.333Z,-0.72
2023-01-28T06:58:10.623Z,-0.74
2023-01-28T06:59:10.886Z,-0.74
2023-01-28T07:00:11.187Z,-0.78
2023-01-28T07:01:11.557Z,-0.71
2023-01-28T07:02:11.802Z,-0.86
2023-01-28T07:03:12.246Z,-0.89
2023-01-28T07:04:12.443Z,-0.82
2023-01-28T07:05:12.730Z,-0.82
2023-01-28T07:06:13.105Z,-0.89
2023-01-28T07:07:13.347Z,-0.77
2023-01-28T07:08:13.657Z,-0.85
2023-01-28T07:09:14.153Z,-0.85
2023-01-28T07:10:14.664Z,-0.82
2023-01-28T07:11:14.652Z,-0.94
2023-01-28T07:12:14.869Z,-0.85
2023-01-28T07:13:15.178Z,-0.86
2023-01-28T07:14:15.488Z,-0.85
2023-01-28T07:15:15.806Z,-0.94
2023-01-28T07:16:16.117Z,-0.89
2023-01-28T07:17:16.468Z,-0.90
2023-01-28T07:18:16.714Z,-0.86
2023-01-28T07:19:17.053Z,-0.89
2023-01-28T07:20:17.769Z,-0.93
2023-01-28T07:21:17.697Z,-0.86
2023-01-28T07:22:17.977Z,-0.86
2023-01-28T07:23:18.274Z,-0.90
2023-01-28T07:24:18.631Z,-0.89
2023-01-28T07:25:18.874Z,-0.80
2023-01-28T07:26:19.204Z,-0.90
2023-01-28T07:27:19.487Z,-0.94
2023-01-28T07:28:19.778Z,-0.82
2023-01-28T07:29:20.076Z,-0.85
2023-01-28T07:30:20.401Z,-0.89
2023-01-28T07:31:20.820Z,-0.82
2023-01-28T07:32:20.997Z,-0.90
2023-01-28T07:33:21.306Z,-0.97
2023-01-28T07:34:21.616Z,-0.85
2023-01-28T07:35:21.932Z,-0.89
2023-01-28T07:36:22.199Z,-0.85
2023-01-28T07:37:22.513Z,-0.90
2023-01-28T07:38:22.846Z,-0.89
2023-01-28T07:39:23.148Z,-0.89
2023-01-28T07:40:23.515Z,-0.89
2023-01-28T07:41:23.764Z,-0.93
2023-01-28T07:42:24.185Z,-0.85
2023-01-28T07:43:24.341Z,-0.91
2023-01-28T07:44:24.634Z,-0.83
2023-01-28T07:45:24.929Z,-0.85
2023-01-28T07:46:25.212Z,-0.82
2023-01-28T07:47:25.570Z,-0.94
2023-01-28T07:48:25.762Z,-0.83
2023-01-28T07:49:26.095Z,-0.83
2023-01-28T07:50:26.325Z,-0.83
2023-01-28T07:51:26.608Z,-0.80
2023-01-28T07:52:26.920Z,-0.80
2023-01-28T07:53:27.167Z,-0.68
2023-01-28T07:54:27.525Z,-0.77
2023-01-28T07:55:30.963Z,-0.68
2023-01-28T07:56:28.028Z,-0.71
2023-01-28T07:57:28.304Z,-0.74
2023-01-28T07:58:28.597Z,-0.77
2023-01-28T07:59:28.903Z,-0.71
2023-01-28T08:00:29.139Z,-0.65
2023-01-28T08:01:29.486Z,-0.64
2023-01-28T08:02:29.692Z,-0.61
2023-01-28T08:03:29.994Z,-0.67
2023-01-28T08:04:30.362Z,-0.64
2023-01-28T08:05:30.733Z,-0.67
2023-01-28T08:06:30.820Z,-0.64
2023-01-28T08:07:31.091Z,-0.67
2023-01-28T08:08:31.362Z,-0.62
2023-01-28T08:09:31.636Z,-0.61
2023-01-28T08:10:31.934Z,-0.64
2023-01-28T08:11:32.171Z,-0.61
2023-01-28T08:12:32.463Z,-0.65
2023-01-28T08:13:32.702Z,-0.67
2023-01-28T08:14:32.964Z,-0.62
2023-01-28T08:15:35.055Z,-0.59
2023-01-28T08:16:33.515Z,-0.54
2023-01-28T08:17:33.781Z,-0.56
2023-01-28T08:18:34.051Z,-0.50
2023-01-28T08:19:34.342Z,-0.38
2023-01-28T08:20:34.597Z,-0.46
2023-01-28T08:21:34.849Z,-0.38
2023-01-28T08:22:35.133Z,-0.26
2023-01-28T08:23:35.370Z,-0.21
2023-01-28T08:24:35.656Z,-0.15
2023-01-28T08:25:35.910Z,-0.20
2023-01-28T08:26:36.275Z,-0.07
2023-01-28T08:27:36.477Z,0.04
2023-01-28T08:28:36.745Z,0.01
2023-01-28T08:29:37.011Z,0.15
2023-01-28T08:30:37.282Z,0.21
2023-01-28T08:31:37.636Z,0.37
2023-01-28T08:32:37.819Z,0.43
2023-01-28T08:33:38.105Z,0.43
2023-01-28T08:34:38.419Z,0.59
2023-01-28T08:35:38.687Z,0.65
2023-01-28T08:36:38.976Z,0.76
2023-01-28T08:37:39.219Z,0.83
2023-01-28T08:38:39.551Z,0.78
2023-01-28T08:39:39.754Z,0.87
2023-01-28T08:40:40.032Z,0.98
2023-01-28T08:41:40.310Z,0.94
2023-01-28T08:42:40.582Z,0.96
2023-01-28T08:43:40.871Z,1.01
2023-01-28T08:44:41.103Z,1.04
2023-01-28T08:45:41.361Z,1.08
2023-01-28T08:46:41.779Z,1.14
2023-01-28T08:47:41.902Z,1.12
2023-01-28T08:48:42.168Z,1.14
2023-01-28T08:49:42.453Z,1.14
2023-01-28T08:50:42.703Z,1.13
2023-01-28T08:51:42.971Z,1.13
2023-01-28T08:52:43.204Z,1.19
2023-01-28T08:53:43.469Z,1.16
2023-01-28T08:54:43.742Z,1.10
2023-01-28T08:55:44.001Z,1.12
2023-01-28T08:56:44.358Z,1.06
2023-01-28T08:57:44.547Z,1.08
2023-01-28T08:58:44.809Z,1.10
2023-01-28T08:59:45.239Z,1.13
2023-01-28T09:00:45.336Z,1.13
2023-01-28T09:01:45.880Z,1.12
2023-01-28T09:02:45.889Z,1.08
2023-01-28T09:03:46.205Z,1.13
2023-01-28T09:04:46.468Z,1.13
2023-01-28T09:05:46.718Z,1.12
2023-01-28T09:06:47.055Z,1.17
2023-01-28T09:07:47.265Z,1.16
2023-01-28T09:08:47.532Z,1.08
2023-01-28T09:09:47.803Z,1.14
2023-01-28T09:10:48.082Z,1.17
2023-01-28T09:11:48.475Z,1.14
2023-01-28T09:12:48.586Z,1.14
2023-01-28T09:13:48.844Z,1.17
2023-01-28T09:14:49.108Z,1.17
2023-01-28T09:15:49.394Z,1.23
2023-01-28T09:16:49.661Z,1.26
2023-01-28T09:17:49.923Z,1.26
2023-01-28T09:18:50.216Z,1.32
2023-01-28T09:19:50.484Z,1.34
2023-01-28T09:20:50.745Z,1.34
2023-01-28T09:21:51.020Z,1.40
2023-01-28T09:22:51.299Z,1.34
2023-01-28T09:23:51.600Z,1.40
2023-01-28T09:24:51.846Z,1.41
2023-01-28T09:25:52.165Z,1.42
2023-01-28T09:26:52.404Z,1.49
2023-01-28T09:27:52.683Z,1.67
2023-01-28T09:28:52.976Z,1.62
2023-01-28T09:29:53.264Z,1.71
2023-01-28T09:30:53.905Z,1.71
2023-01-28T09:31:53.872Z,1.80
2023-01-28T09:32:54.067Z,1.89
2023-01-28T09:33:54.327Z,1.77
2023-01-28T09:34:54.647Z,1.92
2023-01-28T09:35:54.975Z,1.94
2023-01-28T09:36:55.123Z,1.91
2023-01-28T09:37:55.393Z,1.91
2023-01-28T09:38:55.666Z,2.07
2023-01-28T09:39:55.942Z,2.00
2023-01-28T09:40:56.340Z,2.00
2023-01-28T09:41:56.487Z,2.06
2023-01-28T09:42:56.762Z,2.10
2023-01-28T09:43:57.029Z,2.13
2023-01-28T09:44:57.343Z,2.11
2023-01-28T09:45:57.584Z,2.13
2023-01-28T09:46:58.062Z,2.13
2023-01-28T09:47:58.095Z,2.13
2023-01-28T09:48:58.441Z,2.24
2023-01-28T09:49:58.655Z,2.13
2023-01-28T09:50:58.894Z,2.17
2023-01-28T09:51:59.186Z,2.15
2023-01-28T09:52:59.443Z,2.18
2023-01-28T09:53:59.699Z,2.24
2023-01-28T09:54:59.985Z,2.22
2023-01-28T09:56:00.263Z,2.22
2023-01-28T09:57:00.494Z,2.18
2023-01-28T09:58:00.785Z,2.22
2023-01-28T09:59:01.019Z,2.17
2023-01-28T10:00:01.284Z,2.24
2023-01-28T10:01:01.603Z,2.24
2023-01-28T10:02:01.820Z,2.17
2023-01-28T10:03:02.224Z,2.25
2023-01-28T10:04:02.458Z,2.20
2023-01-28T10:05:02.684Z,2.29
2023-01-28T10:06:02.916Z,2.29
2023-01-28T10:07:03.179Z,2.35
2023-01-28T10:08:03.478Z,2.38
2023-01-28T10:09:03.737Z,2.38
2023-01-28T10:10:03.972Z,2.56
2023-01-28T10:11:04.238Z,2.60
2023-01-28T10:12:04.502Z,2.64
2023-01-28T10:13:04.770Z,2.74
2023-01-28T10:14:05.120Z,2.80
2023-01-28T10:15:05.314Z,2.95
2023-01-28T10:16:05.581Z,2.95
2023-01-28T10:17:05.867Z,3.00
2023-01-28T10:18:16.511Z,3.10
2023-01-28T10:19:06.432Z,3.07
2023-01-28T10:20:06.647Z,3.18
2023-01-28T10:21:06.867Z,3.23
2023-01-28T10:22:07.112Z,3.36
2023-01-28T10:23:07.370Z,3.32
2023-01-28T10:24:07.679Z,3.29
2023-01-28T10:25:07.879Z,3.41
2023-01-28T10:26:08.220Z,3.45
2023-01-28T10:27:08.374Z,3.47
2023-01-28T10:28:08.618Z,3.53
2023-01-28T10:29:08.862Z,3.59
2023-01-28T10:30:09.104Z,3.63
2023-01-28T10:31:09.461Z,3.65
2023-01-28T10:32:09.587Z,3.63
2023-01-28T10:33:09.827Z,3.74
2023-01-28T10:34:10.068Z,3.78
2023-01-28T10:35:10.340Z,3.68
2023-01-28T10:36:10.564Z,3.81
2023-01-28T10:37:10.787Z,3.92
2023-01-28T10:38:11.044Z,3.84
2023-01-28T10:39:11.262Z,3.94
2023-01-28T10:40:11.519Z,3.99
2023-01-28T10:41:11.768Z,4.20
2023-01-28T10:42:11.982Z,4.19
2023-01-28T10:43:12.216Z,4.19
2023-01-28T10:44:12.484Z,4.35
2023-01-28T10:45:12.696Z,4.31
2023-01-28T10:46:12.970Z,4.42
2023-01-28T10:47:13.151Z,4.40
2023-01-28T10:48:13.427Z,4.48
2023-01-28T10:49:13.604Z,4.41
2023-01-28T10:50:14.225Z,4.45
2023-01-28T10:51:14.047Z,4.42
2023-01-28T10:52:14.273Z,4.48
2023-01-28T10:53:14.558Z,4.56
2023-01-28T10:54:14.740Z,4.60
2023-01-28T10:55:14.962Z,4.63
2023-01-28T10:56:15.196Z,4.73
2023-01-28T10:57:15.432Z,4.89
2023-01-28T10:58:15.918Z,4.97
2023-01-28T10:59:15.912Z,5.02
2023-01-28T11:00:16.504Z,5.12
2023-01-28T11:01:16.503Z,5.11
2023-01-28T11:02:16.685Z,5.12
2023-01-28T11:03:16.926Z,5.17
2023-01-28T11:04:17.137Z,5.23
2023-01-28T11:05:17.479Z,5.32
2023-01-28T11:06:17.633Z,5.25
2023-01-28T11:07:17.865Z,5.38
2023-01-28T11:08:18.137Z,5.46
2023-01-28T11:09:18.348Z,5.39
2023-01-28T11:10:18.605Z,5.29
2023-01-28T11:11:18.813Z,5.29
2023-01-28T11:12:19.036Z,5.28
2023-01-28T11:13:19.292Z,5.21
2023-01-28T11:14:19.501Z,5.21
2023-01-28T11:15:19.751Z,5.20
2023-01-28T11:16:19.993Z,5.20
2023-01-28T11:17:20.270Z,5.23
2023-01-28T11:18:20.539Z,5.21
2023-01-28T11:19:20.712Z,5.18
2023-01-28T11:20:21.015Z,5.18
2023-01-28T11:21:21.233Z,5.15
2023-01-28T11:22:21.485Z,5.18
2023-01-28T11:23:21.762Z,5.30
2023-01-28T11:24:22.120Z,5.29
2023-01-28T11:25:22.207Z,5.35
2023-01-28T11:26:22.455Z,5.25
2023-01-28T11:27:22.731Z,5.33
2023-01-28T11:28:22.920Z,5.29
2023-01-28T11:29:23.168Z,5.39
2023-01-28T11:30:23.405Z,5.36
2023-01-28T11:31:23.668Z,5.38
2023-01-28T11:32:24.045Z,5.41
2023-01-28T11:33:24.176Z,5.36
2023-01-28T11:34:24.438Z,5.38
2023-01-28T11:35:24.705Z,5.38
2023-01-28T11:36:24.836Z,5.25
2023-01-28T11:37:25.092Z,5.29
2023-01-28T11:38:25.304Z,5.25
2023-01-28T11:39:25.533Z,5.17
2023-01-28T11:40:25.941Z,5.18
2023-01-28T11:41:26.004Z,5.15
2023-01-28T11:42:26.233Z,5.14
2023-01-28T11:43:26.499Z,5.14
2023-01-28T11:44:26.705Z,5.05
2023-01-28T11:45:27.016Z,5.10
2023-01-28T11:46:27.191Z,5.10
2023-01-28T11:47:27.421Z,5.10
2023-01-28T11:48:27.649Z,5.00
2023-01-28T11:49:27.933Z,5.11
2023-01-28T11:50:28.146Z,5.05
2023-01-28T11:51:28.367Z,4.89
2023-01-28T11:52:38.787Z,4.92
2023-01-28T11:53:28.862Z,4.97
2023-01-28T11:54:29.136Z,4.89
2023-01-28T11:55:29.377Z,4.97
2023-01-28T11:56:29.587Z,4.94
2023-01-28T11:57:29.825Z,5.07
2023-01-28T11:58:30.099Z,5.10
2023-01-28T11:59:30.311Z,5.11
2023-01-28T12:00:30.597Z,5.11
2023-01-28T12:01:30.808Z,5.18
2023-01-28T12:02:31.144Z,5.29
2023-01-28T12:03:31.367Z,5.41
2023-01-28T12:04:31.641Z,5.39
2023-01-28T12:05:31.857Z,5.44
2023-01-28T12:06:33.309Z,5.54
2023-01-28T12:07:32.313Z,5.41
2023-01-28T12:08:32.534Z,5.48
2023-01-28T12:09:32.799Z,5.43
2023-01-28T12:10:33.011Z,5.48
2023-01-28T12:11:33.248Z,5.43
2023-01-28T12:12:33.501Z,5.47
2023-01-28T12:13:33.727Z,5.54
2023-01-28T12:14:33.958Z,5.53
2023-01-28T12:15:34.286Z,5.51
2023-01-28T12:16:34.374Z,5.51
2023-01-28T12:17:34.597Z,5.50
2023-01-28T12:18:34.817Z,5.51
2023-01-28T12:19:35.074Z,5.54
2023-01-28T12:20:35.476Z,5.53
2023-01-28T12:21:35.490Z,5.54
2023-01-28T12:22:35.731Z,5.57
2023-01-28T12:23:35.938Z,5.61
2023-01-28T12:24:36.163Z,5.59
2023-01-28T12:25:36.691Z,5.51
2023-01-28T12:26:36.617Z,5.53
2023-01-28T12:27:36.832Z,5.54
2023-01-28T12:28:37.056Z,5.50
2023-01-28T12:29:37.305Z,5.53
2023-01-28T12:30:37.552Z,5.53
2023-01-28T12:31:37.929Z,5.51
2023-01-28T12:32:37.977Z,5.47
2023-01-28T12:33:38.210Z,5.53
2023-01-28T12:34:38.439Z,5.59
2023-01-28T12:35:38.971Z,5.39
2023-01-28T12:36:38.903Z,5.39
2023-01-28T12:37:39.129Z,5.35
2023-01-28T12:38:39.355Z,5.39
2023-01-28T12:39:39.583Z,5.48
2023-01-28T12:40:39.831Z,5.36
2023-01-28T12:41:40.023Z,5.44
2023-01-28T12:42:40.249Z,5.53
2023-01-28T12:43:40.469Z,5.54
2023-01-28T12:44:40.822Z,5.56
2023-01-28T12:45:41.063Z,5.47
2023-01-28T12:46:41.123Z,5.39
2023-01-28T12:47:41.349Z,5.38
2023-01-28T12:48:41.538Z,5.26
2023-01-28T12:49:41.736Z,5.28
2023-01-28T12:50:42.111Z,5.25
2023-01-28T12:51:42.195Z,5.18
2023-01-28T12:52:42.424Z,5.17
2023-01-28T12:53:42.653Z,5.02
2023-01-28T12:54:42.880Z,5.02
2023-01-28T12:55:43.138Z,5.08
2023-01-28T12:56:43.386Z,5.10
2023-01-28T12:57:43.593Z,5.05
2023-01-28T12:58:43.805Z,5.14
2023-01-28T12:59:44.029Z,5.18
2023-01-28T13:00:44.271Z,5.20
2023-01-28T13:01:44.668Z,5.26
2023-01-28T13:02:44.789Z,5.18
2023-01-28T13:03:44.960Z,5.17
2023-01-28T13:04:45.184Z,5.23
2023-01-28T13:05:45.446Z,5.25
2023-01-28T13:06:45.760Z,5.29
2023-01-28T13:07:45.915Z,5.35
2023-01-28T13:08:46.115Z,5.36
2023-01-28T13:09:46.366Z,5.39
2023-01-28T13:10:46.597Z,5.30
2023-01-28T13:11:46.828Z,5.32
2023-01-28T13:12:47.108Z,5.38
2023-01-28T13:13:47.301Z,5.30
2023-01-28T13:14:47.527Z,5.36
2023-01-28T13:15:47.772Z,5.35